Time;durP1;ratioP1;P1;durP2;ratioP2;P2;SDS_P1;SDS_P2;PMS_P1;PMS_P2;Temp;Humidity;BMP_temperature;BMP_pressure;BME280_temperature;BME280_humidity;BME280_pressure;Samples;Min_cycle;Max_cycle;Signal;HPM_P1;HPM_P2
2022/05/29 00:01:52;;;;;;;2.62;2.42;;;;;;;11.71;59.83;94327.26;1681244;85;21012;-46
2022/05/29 00:04:19;;;;;;;2.70;2.50;;;;;;;11.69;59.74;94318.06;1654750;86;21484;-46
2022/05/29 00:06:48;;;;;;;3.08;2.50;;;;;;;11.72;60.06;94317.77;1654523;86;21040;-46
2022/05/29 00:09:25;;;;;;;3.92;2.95;;;;;;;11.72;60.52;94317.77;1654451;86;21236;-46
2022/05/29 00:11:51;;;;;;;4.12;2.47;;;;;;;11.70;60.37;94322.98;1654832;85;21450;-46
2022/05/29 00:14:18;;;;;;;2.75;2.50;;;;;;;11.68;60.08;94315.16;1654496;86;21020;-46
2022/05/29 00:16:46;;;;;;;3.72;2.72;;;;;;;11.63;60.20;94311.67;1680607;85;21016;-46
2022/05/29 00:19:13;;;;;;;2.47;2.33;;;;;;;11.59;60.16;94304.78;1654560;86;20984;-46
2022/05/29 00:21:39;;;;;;;4.70;2.50;;;;;;;11.61;60.66;94303.10;1654704;86;21222;-47
2022/05/29 00:24:08;;;;;;;3.12;2.55;;;;;;;11.61;60.99;94308.61;1681077;85;21088;-47
2022/05/29 00:26:35;;;;;;;4.72;2.50;;;;;;;11.60;61.10;94305.71;1636091;86;20992;-46
2022/05/29 00:29:02;;;;;;;4.03;2.35;;;;;;;11.59;61.09;94302.80;1654583;86;21468;-46
2022/05/29 00:31:30;;;;;;;6.10;2.42;;;;;;;11.57;61.12;94301.73;1654644;86;20989;-46
2022/05/29 00:33:56;;;;;;;5.70;2.77;;;;;;;11.53;61.32;94305.98;1654691;86;21262;-46
2022/05/29 00:36:24;;;;;;;4.67;3.08;;;;;;;11.53;61.15;94305.98;1654717;86;21523;-46
2022/05/29 00:38:52;;;;;;;3.45;2.50;;;;;;;11.56;61.13;94307.84;1654695;86;20964;-47
2022/05/29 00:41:31;;;;;;;3.55;2.83;;;;;;;11.59;61.07;94302.03;1655100;86;21492;-47
2022/05/29 00:44:24;;;;;;;3.30;2.37;;;;;;;11.57;61.24;94294.84;1654648;86;21028;-47
2022/05/29 00:47:03;;;;;;;;;;;;;;;11.50;61.19;94294.52;1657117;86;21238;-46
2022/05/29 00:49:33;;;;;;;4.08;2.50;;;;;;;11.45;61.62;94290.25;1653844;84;20134;-46
2022/05/29 00:52:19;;;;;;;3.77;2.50;;;;;;;11.36;61.92;94286.91;1654697;86;20979;-46
2022/05/29 00:54:55;;;;;;;3.00;2.37;;;;;;;11.30;62.19;94290.73;1654777;86;21633;-46
2022/05/29 00:57:31;;;;;;;3.70;2.70;;;;;;;11.24;62.40;94289.25;1654643;86;20972;-47
2022/05/29 01:00:02;;;;;;;2.55;2.35;;;;;;;11.21;62.76;94287.39;1654681;86;21166;-46
2022/05/29 01:02:29;;;;;;;2.80;2.60;;;;;;;11.18;63.03;94293.83;1655035;86;21024;-47
2022/05/29 01:04:56;;;;;;;3.55;2.72;;;;;;;11.15;63.07;94288.50;1654605;86;21036;-47
2022/05/29 01:07:24;;;;;;;2.75;2.50;;;;;;;11.08;63.15;94288.80;1654716;85;21017;-47
2022/05/29 01:09:51;;;;;;;2.75;2.30;;;;;;;11.04;63.44;94281.31;1654575;86;21024;-47
2022/05/29 01:12:57;;;;;;;2.60;2.40;;;;;;;11.06;63.66;94282.39;1654762;85;21161;-47
2022/05/29 01:15:32;;;;;;;5.80;2.65;;;;;;;11.12;63.85;94284.67;1654555;86;20956;-46
2022/05/29 01:18:21;;;;;;;4.17;2.80;;;;;;;11.14;63.63;94289.09;1654635;85;21024;-46
2022/05/29 01:21:44;;;;;;;5.03;2.42;;;;;;;11.18;63.45;94288.32;1624354;86;21032;-46
2022/05/29 01:24:24;;;;;;;;;;;;;;;11.19;63.12;94288.47;1657128;86;21484;-46
2022/05/29 01:27:21;;;;;;;3.42;2.37;;;;;;;11.19;63.32;94282.96;1654715;86;21321;-47
2022/05/29 01:30:01;;;;;;;3.00;2.70;;;;;;;11.13;63.70;94281.31;1645306;86;21071;-47
2022/05/29 01:32:51;;;;;;;7.03;2.85;;;;;;;11.03;64.16;94277.81;1654716;86;21056;-46
2022/05/29 01:35:24;;;;;;;3.40;2.98;;;;;;;10.99;64.77;94289.57;1654594;86;21000;-46
2022/05/29 01:38:14;;;;;;;4.47;2.72;;;;;;;10.92;65.52;94288.52;1654663;85;20960;-46
2022/05/29 01:40:45;;;;;;;3.30;3.00;;;;;;;10.87;65.78;94286.98;1654733;86;21452;-46
2022/05/29 01:43:41;;;;;;;4.72;2.85;;;;;;;10.83;66.08;94280.88;1654694;86;21011;-46
2022/05/29 01:46:16;;;;;;;3.72;2.47;;;;;;;10.81;66.37;94279.95;1635895;86;21082;-47
2022/05/29 01:48:57;;;;;;;6.15;3.22;;;;;;;10.82;66.46;94280.10;1653818;86;20972;-46
2022/05/29 01:51:38;;;;;;;6.90;3.10;;;;;;;10.79;66.54;94279.66;1654491;86;21194;-47
2022/05/29 01:54:32;;;;;;;7.05;3.15;;;;;;;10.79;66.70;94277.53;1654742;86;21115;-46
2022/05/29 01:57:14;;;;;;;4.65;2.87;;;;;;;10.78;67.01;94269.87;1654594;86;20969;-47
2022/05/29 01:59:49;;;;;;;3.20;2.90;;;;;;;10.82;66.85;94271.84;1654614;85;21182;-47
2022/05/29 02:02:20;;;;;;;4.28;3.10;;;;;;;10.80;66.88;94274.30;1654658;86;21071;-46
2022/05/29 02:04:49;;;;;;;6.95;3.37;;;;;;;10.81;66.94;94275.83;1654575;86;21024;-47
2022/05/29 02:10:36;;;;;;;3.35;3.05;;;;;;;10.80;67.15;94285.94;1654512;86;21056;-46
2022/05/29 02:13:26;;;;;;;4.92;3.45;;;;;;;10.80;67.37;94281.80;1653494;86;21040;-46
2022/05/29 02:16:07;;;;;;;3.10;2.90;;;;;;;10.76;67.41;94287.45;1649641;86;21153;-47
2022/05/29 02:18:43;;;;;;;3.85;2.92;;;;;;;10.74;67.46;94280.87;1654683;86;21080;-46
2022/05/29 02:21:20;;;;;;;3.10;2.75;;;;;;;10.76;67.59;94280.58;1654605;85;21156;-46
2022/05/29 02:23:51;;;;;;;4.75;3.37;;;;;;;10.79;67.67;94274.15;1654011;86;21164;-48
2022/05/29 02:26:21;;;;;;;3.92;3.00;;;;;;;10.78;67.76;94283.63;1654635;86;21067;-47
2022/05/29 02:28:53;;;;;;;6.30;3.40;;;;;;;10.74;67.88;94277.52;1654806;86;21559;-48
2022/05/29 02:31:40;;;;;;;2.98;2.77;;;;;;;10.69;67.99;94281.48;1654015;86;21020;-48
2022/05/29 02:34:37;;;;;;;5.67;3.02;;;;;;;10.70;68.11;94283.64;1654747;86;21158;-47
2022/05/29 02:37:19;;;;;;;2.98;2.70;;;;;;;10.67;68.18;94284.53;1653171;86;20992;-48
2022/05/29 02:40:27;;;;;;;3.72;2.77;;;;;;;10.62;68.17;94279.66;1654549;86;21072;-46
2022/05/29 02:43:36;;;;;;;3.17;2.87;;;;;;;10.54;68.23;94271.56;1654528;86;21032;-47
2022/05/29 02:46:38;;;;;;;2.90;2.70;;;;;;;10.51;68.33;94279.36;1654663;86;21429;-48
2022/05/29 02:49:22;;;;;;;4.28;3.08;;;;;;;10.52;68.13;94276.77;1654748;86;21150;-46
2022/05/29 02:51:57;;;;;;;3.25;2.92;;;;;;;10.47;68.03;94274.59;1654403;86;21052;-47
2022/05/29 02:54:27;;;;;;;3.47;2.72;;;;;;;10.41;68.21;94270.34;1654370;86;21432;-48
2022/05/29 02:56:56;;;;;;;4.50;2.80;;;;;;;10.36;68.23;94274.30;1636226;86;21589;-47
2022/05/29 02:59:25;;;;;;;3.67;2.70;;;;;;;10.32;68.35;94273.06;1654532;86;21032;-47
2022/05/29 03:02:03;;;;;;;3.22;2.92;;;;;;;10.30;68.38;94282.38;1654499;86;21945;-47
2022/05/29 03:04:56;;;;;;;8.50;3.47;;;;;;;10.25;68.37;94283.59;1654750;86;21449;-48
2022/05/29 03:07:46;;;;;;;3.42;3.00;;;;;;;10.16;68.61;94283.59;1654749;86;21016;-46
2022/05/29 03:10:17;;;;;;;3.05;2.75;;;;;;;10.10;68.81;94278.52;1653507;86;20996;-48
2022/05/29 03:12:55;;;;;;;4.05;3.20;;;;;;;10.05;68.99;94270.88;1654882;86;21587;-46
2022/05/29 03:15:33;;;;;;;3.58;3.27;;;;;;;10.00;69.02;94274.95;1635277;86;21254;-47
2022/05/29 03:18:21;;;;;;;3.27;3.08;;;;;;;9.95;69.24;94277.56;1654497;86;21004;-47
2022/05/29 03:21:08;;;;;;;5.78;3.50;;;;;;;9.92;69.49;94274.31;1654513;86;21076;-46
2022/05/29 03:24:07;;;;;;;5.62;3.45;;;;;;;9.87;69.71;94269.42;1646614;86;21107;-46
2022/05/29 03:27:03;;;;;;;7.00;3.50;;;;;;;9.89;69.80;94271.11;1654646;86;20987;-46
2022/05/29 03:29:49;;;;;;;7.33;3.83;;;;;;;9.83;69.92;94266.06;1654573;86;21290;-46
2022/05/29 03:32:17;;;;;;;6.10;3.65;;;;;;;9.76;70.17;94267.11;1654457;86;21024;-46
2022/05/29 03:34:45;;;;;;;3.33;3.08;;;;;;;9.83;70.50;94261.95;1614141;86;21456;-47
2022/05/29 03:37:12;;;;;;;5.85;2.75;;;;;;;10.19;70.48;94257.94;1654586;86;21032;-47
2022/05/29 03:39:40;;;;;;;5.37;3.00;;;;;;;10.45;69.41;94261.92;1654503;86;21100;-46
2022/05/29 03:42:08;;;;;;;3.12;2.62;;;;;;;10.47;68.98;94260.25;1654508;86;21411;-47
2022/05/29 03:44:35;;;;;;;3.27;2.98;;;;;;;10.45;68.84;94261.33;1654839;86;21504;-47
2022/05/29 03:47:03;;;;;;;3.90;3.20;;;;;;;10.41;68.88;94266.22;1654597;85;20981;-47
2022/05/29 03:49:30;;;;;;;3.47;3.17;;;;;;;10.33;69.09;94264.22;1654559;86;20992;-49
2022/05/29 03:51:57;;;;;;;3.45;2.95;;;;;;;10.29;69.23;94277.33;1635221;86;21503;-55
2022/05/29 03:54:25;;;;;;;3.37;3.10;;;;;;;10.26;69.35;94276.87;1654541;86;21182;-47
2022/05/29 03:56:52;;;;;;;3.47;3.10;;;;;;;10.21;69.61;94273.36;1654670;86;21013;-47
2022/05/29 03:59:18;;;;;;;4.90;3.15;;;;;;;10.22;69.74;94274.29;1654720;86;21179;-46
2022/05/29 04:01:46;;;;;;;3.37;3.02;;;;;;;10.30;69.70;94278.26;1635810;86;21086;-47
2022/05/29 04:04:12;;;;;;;3.20;2.90;;;;;;;10.40;69.53;94277.06;1655064;86;21044;-47
2022/05/29 04:06:40;;;;;;;3.83;2.75;;;;;;;10.50;69.29;94272.33;1654731;85;21182;-47
2022/05/29 04:12:03;;;;;;;3.20;2.90;;;;;;;10.58;69.02;94274.92;1654989;86;21428;-47
2022/05/29 04:14:38;;;;;;;7.17;2.65;;;;;;;10.64;68.85;94273.08;1654646;86;20997;-47
2022/05/29 04:17:04;;;;;;;5.00;2.80;;;;;;;10.66;68.75;94283.01;1654945;86;20976;-46
2022/05/29 04:19:31;;;;;;;3.37;3.08;;;;;;;10.67;68.77;94274.91;1654735;86;21100;-47
2022/05/29 04:21:58;;;;;;;3.47;2.95;;;;;;;10.70;68.84;94271.27;1654648;86;21020;-46
2022/05/29 04:24:25;;;;;;;3.25;3.02;;;;;;;10.73;68.86;94274.47;1654594;86;21052;-47
2022/05/29 04:26:52;;;;;;;3.20;2.75;;;;;;;10.78;68.83;94275.38;1654716;86;21020;-46
2022/05/29 04:29:19;;;;;;;3.33;3.02;;;;;;;10.85;68.91;94280.58;1654674;86;21012;-47
2022/05/29 04:34:32;;;;;;;4.75;3.17;;;;;;;11.05;68.21;94280.86;1654576;86;20973;-47
2022/05/29 04:37:00;;;;;;;5.72;3.20;;;;;;;11.18;67.89;94288.32;1654686;85;20972;-46
2022/05/29 04:39:27;;;;;;;3.25;2.72;;;;;;;11.33;67.57;94278.20;1654640;86;21024;-47
2022/05/29 04:41:53;;;;;;;5.80;3.12;;;;;;;11.52;67.24;94287.94;1654672;86;20992;-47
2022/05/29 04:44:20;;;;;;;4.33;2.90;;;;;;;11.64;66.50;94292.53;1654704;86;21301;-46
2022/05/29 04:46:47;;;;;;;5.70;2.70;;;;;;;11.72;66.11;94293.71;1654546;86;21012;-47
2022/05/29 04:49:14;;;;;;;7.08;2.77;;;;;;;11.80;65.57;94290.01;1654668;86;21109;-46
2022/05/29 04:51:41;;;;;;;5.55;2.90;;;;;;;11.83;64.70;94289.85;1635535;86;20980;-46
2022/05/29 04:54:08;;;;;;;3.12;2.50;;;;;;;11.91;64.79;94292.41;1654613;86;21024;-46
2022/05/29 04:56:34;;;;;;;2.80;2.60;;;;;;;12.06;64.71;94297.39;1654522;86;21109;-46
2022/05/29 04:59:01;;;;;;;5.37;2.65;;;;;;;12.21;64.39;94301.00;1654604;86;21020;-47
2022/05/29 05:01:28;;;;;;;7.25;3.10;;;;;;;12.29;63.79;94295.91;1635815;86;21452;-46
2022/05/29 05:03:54;;;;;;;4.28;2.70;;;;;;;12.40;63.07;94299.66;1654579;86;20962;-47
2022/05/29 05:06:22;;;;;;;3.87;2.83;;;;;;;12.45;62.82;94300.39;1654640;86;20984;-47
2022/05/29 05:08:50;;;;;;;4.40;3.10;;;;;;;12.51;62.83;94293.02;1654558;86;21322;-46
2022/05/29 05:11:17;;;;;;;7.65;2.77;;;;;;;12.51;62.99;94286.11;1654505;86;21142;-46
2022/05/29 05:13:44;;;;;;;3.67;2.87;;;;;;;12.47;62.65;94291.02;1680961;85;20988;-47
2022/05/29 05:16:11;;;;;;;4.05;3.10;;;;;;;12.39;62.87;94288.48;1654831;86;21429;-47
2022/05/29 05:18:39;;;;;;;5.37;3.35;;;;;;;12.34;63.22;94295.25;1654754;86;21526;-47
2022/05/29 05:21:06;;;;;;;5.03;3.17;;;;;;;12.34;63.47;94289.13;1654553;86;21168;-46
2022/05/29 05:23:33;;;;;;;4.20;3.30;;;;;;;12.41;63.53;94286.64;1654557;86;21460;-47
2022/05/29 05:26:00;;;;;;;7.83;3.65;;;;;;;12.50;62.83;94290.11;1654631;86;21044;-47
2022/05/29 05:28:27;;;;;;;5.65;2.70;;;;;;;12.58;62.81;94283.77;1654780;86;21072;-47
2022/05/29 05:30:54;;;;;;;7.40;3.20;;;;;;;12.66;62.50;94283.54;1680788;85;20981;-48
2022/05/29 05:33:20;;;;;;;6.85;2.95;;;;;;;12.73;62.11;94275.52;1654542;86;21348;-47
2022/05/29 05:35:47;;;;;;;2.58;2.37;;;;;;;12.82;61.80;94274.05;1681101;85;21547;-46
2022/05/29 05:38:14;;;;;;;4.03;2.50;;;;;;;12.90;60.76;94271.09;1654518;86;21050;-51
2022/05/29 05:40:42;;;;;;;3.80;2.33;;;;;;;13.00;60.54;94272.55;1655015;86;21020;-47
2022/05/29 05:43:10;;;;;;;3.37;2.33;;;;;;;13.17;59.92;94270.25;1654745;86;21024;-46
2022/05/29 05:45:42;;;;;;;3.62;2.50;;;;;;;13.39;58.97;94274.79;1654550;86;21254;-47
2022/05/29 05:48:10;;;;;;;2.87;2.02;;;;;;;13.62;58.84;94267.64;1654601;86;21004;-47
2022/05/29 05:50:39;;;;;;;6.20;2.33;;;;;;;13.90;58.01;94268.83;1654525;86;21508;-47
2022/05/29 05:53:07;;;;;;;5.25;2.45;;;;;;;14.11;56.87;94266.25;1654691;86;21464;-47
2022/05/29 05:55:36;;;;;;;3.15;2.33;;;;;;;14.23;56.48;94262.44;1654670;86;20992;-47
2022/05/29 05:58:03;;;;;;;6.17;2.27;;;;;;;14.30;55.58;94262.80;1636312;86;21360;-47
2022/05/29 06:00:30;;;;;;;3.75;2.00;;;;;;;14.38;56.00;94261.77;1654490;86;21109;-46
2022/05/29 06:02:57;;;;;;;5.45;2.50;;;;;;;14.49;54.89;94256.50;1680997;85;21523;-47
2022/05/29 06:05:26;;;;;;;3.67;2.08;;;;;;;14.55;54.57;94259.35;1654505;86;20988;-46
2022/05/29 06:07:53;;;;;;;4.42;2.50;;;;;;;14.64;54.28;94257.84;1654643;86;21019;-49
2022/05/29 06:10:21;;;;;;;2.55;2.20;;;;;;;14.69;54.12;94261.30;1654519;86;21502;-46
2022/05/29 06:12:48;;;;;;;3.45;2.40;;;;;;;14.76;54.07;94262.25;1654783;86;21460;-48
2022/05/29 06:15:15;;;;;;;3.12;2.67;;;;;;;14.81;54.00;94252.63;1635609;86;21507;-47
2022/05/29 06:17:43;;;;;;;10.45;4.55;;;;;;;14.86;53.86;94250.58;1654730;86;21479;-47
2022/05/29 06:20:12;;;;;;;7.03;3.00;;;;;;;14.94;53.39;94244.73;1654534;86;21024;-47
2022/05/29 06:22:39;;;;;;;3.30;2.47;;;;;;;14.96;52.18;94250.55;1654859;86;21268;-47
2022/05/29 06:25:10;;;;;;;7.90;2.37;;;;;;;14.87;51.79;94245.17;1635587;86;21604;-47
2022/05/29 06:27:39;;;;;;;5.22;2.58;;;;;;;14.73;52.62;94245.23;1654602;86;21020;-47
2022/05/29 06:30:08;;;;;;;4.03;2.30;;;;;;;14.70;53.35;94249.75;1654706;86;21060;-47
2022/05/29 06:32:36;;;;;;;3.47;2.25;;;;;;;14.77;53.58;94247.94;1654505;86;21599;-47
2022/05/29 06:35:05;;;;;;;2.50;2.30;;;;;;;14.91;53.22;94242.94;1655032;86;21461;-46
2022/05/29 06:37:32;;;;;;;3.52;2.30;;;;;;;14.99;52.28;94241.26;1654863;86;20969;-46
2022/05/29 06:39:59;;;;;;;3.42;2.20;;;;;;;14.99;51.93;94245.41;1680865;85;21507;-47
2022/05/29 06:42:26;;;;;;;4.92;2.52;;;;;;;14.97;51.58;94247.91;1654511;86;21051;-47
2022/05/29 06:44:53;;;;;;;4.35;2.77;;;;;;;14.95;51.86;94247.64;1654538;86;21477;-48
2022/05/29 06:47:20;;;;;;;2.30;2.10;;;;;;;14.93;52.35;94255.68;1654761;86;21433;-47
2022/05/29 06:49:50;;;;;;;5.47;2.42;;;;;;;15.03;52.76;94253.52;1654482;86;21008;-47
2022/05/29 06:52:17;;;;;;;2.87;2.17;;;;;;;15.09;52.49;94249.56;1654568;86;21076;-47
2022/05/29 06:54:45;;;;;;;2.12;1.90;;;;;;;15.16;52.20;94251.89;1654480;86;20984;-46
2022/05/29 06:57:13;;;;;;;4.10;2.27;;;;;;;15.27;52.28;94246.47;1654775;86;38607;-47
2022/05/29 07:08:01;;;;;;;3.60;2.30;;;;;;;15.56;50.79;94235.16;1654599;86;21032;-47
2022/05/29 07:10:30;;;;;;;5.85;2.15;;;;;;;15.72;51.00;94235.94;1654813;86;21064;-47
2022/05/29 07:12:59;;;;;;;6.53;2.62;;;;;;;15.89;50.09;94232.66;1654553;85;21024;-47
2022/05/29 07:15:26;;;;;;;3.92;2.15;;;;;;;16.00;50.00;94231.37;1654411;86;21020;-48
2022/05/29 07:17:53;;;;;;;3.10;1.90;;;;;;;16.08;50.67;94237.97;1654574;86;21000;-47
2022/05/29 07:20:20;;;;;;;2.67;2.02;;;;;;;16.10;51.04;94225.74;1657818;86;21559;-47
2022/05/29 07:22:46;;;;;;;2.77;2.33;;;;;;;16.21;50.42;94235.54;1635538;86;21032;-47
2022/05/29 07:25:13;;;;;;;4.22;2.50;;;;;;;16.33;49.86;94249.63;1654541;86;21154;-47
2022/05/29 07:27:40;;;;;;;7.85;5.53;;;;;;;16.42;49.48;94236.95;1654419;86;20973;-48
2022/05/29 07:30:10;;;;;;;4.15;2.95;;;;;;;16.51;49.42;94235.38;1654451;86;21075;-47
2022/05/29 07:32:37;;;;;;;2.98;2.55;;;;;;;16.61;48.56;94238.05;1654536;86;21075;-48
2022/05/29 07:35:05;;;;;;;2.55;2.35;;;;;;;16.68;48.82;94232.79;1654522;86;21519;-47
2022/05/29 07:37:32;;;;;;;2.33;2.12;;;;;;;16.78;49.52;94240.28;1635834;86;21240;-46
2022/05/29 07:40:01;;;;;;;4.50;2.20;;;;;;;16.86;49.00;94243.48;1654630;86;21552;-48
2022/05/29 07:45:13;;;;;;;4.28;3.15;;;;;;;17.08;47.63;94237.98;1654792;86;21481;-49
2022/05/29 07:47:43;;;;;;;5.22;2.42;;;;;;;17.18;47.46;94239.91;1654579;86;20984;-49
2022/05/29 07:50:13;;;;;;;5.65;2.37;;;;;;;17.23;47.85;94241.31;1654443;86;21151;-47
2022/05/29 07:52:39;;;;;;;2.22;2.00;;;;;;;17.31;48.14;94242.98;1654343;86;21019;-48
2022/05/29 07:55:07;;;;;;;3.80;2.30;;;;;;;17.31;47.77;94247.89;1654578;86;21047;-47
2022/05/29 07:57:34;;;;;;;3.15;2.10;;;;;;;17.29;47.99;94248.29;1654472;86;21005;-47
2022/05/29 08:00:07;;;;;;;3.52;2.10;;;;;;;17.27;47.46;94247.39;1680495;85;20981;-48
2022/05/29 08:02:36;;;;;;;2.50;2.27;;;;;;;17.26;48.07;94236.14;1654978;85;21290;-48
2022/05/29 08:05:07;;;;;;;3.58;2.05;;;;;;;17.29;47.88;94233.73;1654519;86;21017;-48
2022/05/29 08:07:34;;;;;;;4.85;1.95;;;;;;;17.25;47.61;94223.50;1636199;86;20981;-47
2022/05/29 08:10:03;;;;;;;2.35;2.08;;;;;;;17.15;47.65;94231.19;1635735;86;21445;-48
2022/05/29 08:12:30;;;;;;;5.37;2.17;;;;;;;17.11;47.99;94231.42;1654534;86;20980;-48
2022/05/29 08:14:57;;;;;;;2.90;2.20;;;;;;;17.12;47.63;94228.02;1680875;85;21495;-48
2022/05/29 08:17:24;;;;;;;3.83;1.98;;;;;;;17.04;47.31;94229.14;1680724;85;20996;-48
2022/05/29 08:19:51;;;;;;;6.20;2.85;;;;;;;16.93;47.61;94227.70;1654493;85;20972;-47
2022/05/29 08:22:18;;;;;;;4.05;2.40;;;;;;;16.92;48.08;94237.30;1635561;86;21040;-47
2022/05/29 08:33:14;;;;;;;4.70;2.50;;;;;;;16.88;48.18;94239.56;1654492;86;21012;-47
2022/05/29 08:35:43;;;;;;;4.83;2.05;;;;;;;16.80;48.34;94243.31;1635607;86;20992;-47
2022/05/29 08:38:11;;;;;;;4.72;2.30;;;;;;;16.78;48.10;94250.78;1654576;86;21476;-49
2022/05/29 08:40:45;;;;;;;3.15;2.42;;;;;;;16.76;48.15;94242.80;1654827;86;21508;-48
2022/05/29 08:43:27;;;;;;;4.40;2.25;;;;;;;16.74;48.24;94244.67;1654535;86;20991;-47
2022/05/29 08:45:54;;;;;;;6.70;2.25;;;;;;;16.73;48.81;94249.36;1638472;85;21576;-48
2022/05/29 08:48:23;;;;;;;3.02;2.42;;;;;;;16.75;48.66;94249.62;1635846;86;21004;-47
2022/05/29 08:50:58;;;;;;;10.40;2.90;;;;;;;16.75;48.20;94246.84;1654805;86;21000;-47
2022/05/29 08:53:49;;;;;;;11.20;3.55;;;;;;;16.72;48.38;94247.20;1654877;86;21527;-47
2022/05/29 08:56:22;;;;;;;7.05;2.30;;;;;;;16.72;48.54;94252.75;1654555;86;21136;-47
2022/05/29 08:59:15;;;;;;;11.95;4.03;;;;;;;16.79;48.24;94262.64;1653672;86;21088;-47
2022/05/29 09:01:56;;;;;;;6.17;2.80;;;;;;;16.85;48.68;94255.08;1654829;86;21441;-48
2022/05/29 09:04:28;;;;;;;5.15;2.83;;;;;;;16.93;48.50;94254.75;1651101;86;21033;-47
2022/05/29 09:06:55;;;;;;;3.05;2.45;;;;;;;16.92;48.05;94262.31;1655185;86;21164;-49
2022/05/29 09:09:33;;;;;;;3.77;2.52;;;;;;;16.91;47.84;94257.27;1654473;86;21023;-48
2022/05/29 09:12:07;;;;;;;11.40;3.10;;;;;;;16.85;47.92;94253.69;1654656;85;20965;-48
2022/05/29 09:14:42;;;;;;;3.55;2.50;;;;;;;16.85;48.59;94250.91;1653740;86;21492;-48
2022/05/29 09:17:16;;;;;;;2.55;2.00;;;;;;;16.98;49.33;94252.61;1654566;86;21044;-47
2022/05/29 09:19:57;;;;;;;3.85;2.55;;;;;;;17.07;48.74;94244.06;1654609;86;21304;-47
2022/05/29 09:22:37;;;;;;;2.70;2.08;;;;;;;17.14;47.90;94245.73;1653686;86;20977;-48
2022/05/29 09:25:13;;;;;;;5.60;2.12;;;;;;;17.15;47.78;94247.25;1654534;85;21476;-47
2022/05/29 09:27:47;;;;;;;5.78;2.27;;;;;;;17.12;47.73;94244.70;1654885;86;21068;-47
2022/05/29 09:30:14;;;;;;;7.58;2.55;;;;;;;17.02;48.56;94248.34;1654576;86;20984;-48
2022/05/29 09:33:00;;;;;;;2.77;2.30;;;;;;;16.87;48.58;94253.97;1654638;86;21870;-48
2022/05/29 09:35:38;;;;;;;4.15;1.98;;;;;;;16.74;49.15;94242.55;1654488;86;21056;-47
2022/05/29 09:38:16;;;;;;;2.60;1.82;;;;;;;16.62;48.91;94248.68;1654875;86;21087;-47
2022/05/29 09:40:58;;;;;;;3.00;2.17;;;;;;;16.55;48.70;94239.41;1654237;86;21096;-48
2022/05/29 09:43:26;;;;;;;6.70;2.37;;;;;;;16.51;48.92;94237.50;1654556;86;20976;-48
2022/05/29 09:45:53;;;;;;;3.47;2.52;;;;;;;16.47;49.10;94230.66;1654591;86;21401;-51
2022/05/29 09:51:31;;;;;;;3.22;2.30;;;;;;;16.45;50.48;94233.17;1654509;86;21032;-48
2022/05/29 09:54:01;;;;;;;7.95;2.70;;;;;;;16.47;51.08;94232.05;1654568;86;21562;-49
2022/05/29 09:56:31;;;;;;;2.80;2.33;;;;;;;16.39;51.14;94241.47;1635153;86;21177;-47
2022/05/29 09:59:02;;;;;;;5.45;2.90;;;;;;;16.36;51.93;94237.55;1654745;85;21250;-47
2022/05/29 10:01:40;;;;;;;2.58;2.12;;;;;;;16.30;52.41;94238.11;1654558;86;21061;-54
2022/05/29 10:04:24;;;;;;;7.33;3.50;;;;;;;16.22;52.39;94231.51;1654945;85;21043;-48
2022/05/29 10:06:54;;;;;;;3.17;2.20;;;;;;;16.15;54.01;94238.14;1652374;85;20991;-49
2022/05/29 10:09:23;;;;;;;3.30;2.30;;;;;;;16.03;53.96;94235.15;1654860;86;21251;-48
2022/05/29 10:12:02;;;;;;;2.30;2.10;;;;;;;15.90;54.91;94250.83;1654504;86;21362;-47
2022/05/29 10:14:41;;;;;;;4.33;2.12;;;;;;;15.82;55.26;94249.00;1653176;84;21103;-46
2022/05/29 10:17:29;;;;;;;3.25;2.33;;;;;;;15.72;56.06;94253.22;1654508;86;21083;-47
2022/05/29 10:19:56;;;;;;;4.62;2.20;;;;;;;15.59;55.68;94255.00;1654634;86;21021;-47
2022/05/29 10:22:38;;;;;;;5.42;2.25;;;;;;;15.49;55.80;94252.86;1654784;86;21453;-47
2022/05/29 10:25:23;;;;;;;4.55;2.50;;;;;;;15.45;56.70;94255.88;1654929;85;22358;-48
2022/05/29 10:27:54;;;;;;;5.10;2.70;;;;;;;15.39;57.78;94252.27;1635589;86;21464;-46
2022/05/29 10:30:50;;;;;;;3.27;2.52;;;;;;;15.32;58.70;94251.33;1654033;86;21044;-47
2022/05/29 10:33:23;;;;;;;5.37;2.87;;;;;;;15.19;59.70;94253.69;1654535;86;21031;-48
2022/05/29 10:35:51;;;;;;;4.05;3.08;;;;;;;14.99;61.71;94260.64;1655091;86;21087;-47
2022/05/29 10:38:24;;;;;;;4.08;3.12;;;;;;;14.89;63.85;94267.60;1680550;85;21580;-48
2022/05/29 10:40:59;;;;;;;3.77;2.47;;;;;;;14.83;65.24;94270.16;1654526;86;20953;-46
2022/05/29 10:43:47;;;;;;;5.53;3.27;;;;;;;14.74;66.42;94263.37;1654577;86;21056;-47
2022/05/29 10:46:22;;;;;;;3.22;2.20;;;;;;;14.71;66.54;94262.95;1680411;85;21008;-46
2022/05/29 10:49:07;;;;;;;5.40;3.40;;;;;;;14.70;67.25;94260.83;1654549;86;21091;-47
2022/05/29 10:51:47;;;;;;;5.78;3.22;;;;;;;14.71;68.22;94267.11;1654489;86;21776;-46
2022/05/29 10:54:38;;;;;;;5.58;3.27;;;;;;;14.79;69.23;94273.13;1654436;86;21043;-48
2022/05/29 10:57:27;;;;;;;6.60;2.22;;;;;;;15.00;70.11;94275.27;1654172;85;21455;-46
2022/05/29 11:00:21;;;;;;;5.33;2.45;;;;;;;15.11;67.89;94278.92;1654260;86;21000;-47
2022/05/29 11:03:21;;;;;;;3.90;2.40;;;;;;;14.93;67.28;94279.83;1654153;86;21505;-46
2022/05/29 11:06:22;;;;;;;4.40;2.70;;;;;;;14.78;67.58;94279.92;1654632;86;21242;-46
2022/05/29 11:09:12;;;;;;;6.90;3.10;;;;;;;14.79;68.98;94272.39;1654545;86;21076;-46
2022/05/29 11:12:05;;;;;;;5.80;3.15;;;;;;;14.74;68.90;94270.29;1654597;86;21004;-46
2022/05/29 11:14:41;;;;;;;;;;;;;;;14.70;69.21;94269.13;1656982;86;21081;-46
2022/05/29 11:17:36;;;;;;;4.25;2.95;;;;;;;14.69;69.35;94267.61;1635518;86;20162;-46
2022/05/29 11:20:49;;;;;;;5.10;3.40;;;;;;;14.71;70.69;94269.27;1654469;86;21201;-47
2022/05/29 11:23:45;;;;;;;;;;;;;;;14.58;71.20;94265.30;1656984;86;21067;-47
2022/05/29 11:26:24;;;;;;;6.67;3.47;;;;;;;14.51;71.16;94280.34;1654439;86;20187;-47
2022/05/29 11:29:11;;;;;;;6.15;4.55;;;;;;;14.50;70.89;94276.05;1654601;86;20992;-47
2022/05/29 11:32:10;;;;;;;10.50;4.12;;;;;;;14.54;70.79;94276.59;1654329;85;21169;-47
2022/05/29 11:34:48;;;;;;;4.80;3.87;;;;;;;14.63;70.94;94277.83;1654518;86;21314;-47
2022/05/29 11:37:27;;;;;;;3.85;2.95;;;;;;;14.67;71.05;94272.84;1654157;86;20960;-46
2022/05/29 11:40:14;;;;;;;4.75;3.08;;;;;;;14.76;70.61;94273.33;1654385;86;21012;-46
2022/05/29 11:42:59;;;;;;;4.65;3.00;;;;;;;14.85;70.48;94276.72;1654566;86;20969;-47
2022/05/29 11:51:26;;;;;;;5.70;2.58;;;;;;;14.62;70.76;94276.31;1654472;86;21017;-47
2022/05/29 11:54:12;;;;;;;4.95;2.70;;;;;;;14.46;70.30;94272.70;1636051;86;21015;-47
2022/05/29 11:56:44;;;;;;;7.55;3.60;;;;;;;14.40;70.45;94266.20;1654592;86;21016;-47
2022/05/29 11:59:22;;;;;;;7.45;3.75;;;;;;;14.28;70.93;94254.22;1654811;86;21016;-47
2022/05/29 12:01:55;;;;;;;6.42;4.15;;;;;;;14.15;71.26;94257.90;1654506;86;21224;-47
2022/05/29 12:04:38;;;;;;;7.53;4.85;;;;;;;14.08;71.87;94267.22;1635266;86;20981;-47
2022/05/29 12:07:33;;;;;;;4.58;4.05;;;;;;;13.88;71.76;94261.03;1654661;86;20976;-46
2022/05/29 12:10:19;;;;;;;5.62;3.42;;;;;;;13.71;72.50;94263.38;1654460;85;20981;-46
2022/05/29 12:13:07;;;;;;;6.50;3.85;;;;;;;13.64;72.71;94272.81;1654516;86;21028;-48
2022/05/29 12:15:33;;;;;;;5.83;4.00;;;;;;;13.62;73.39;94275.94;1654909;86;21211;-46
2022/05/29 12:18:05;;;;;;;6.65;3.80;;;;;;;13.60;74.08;94270.13;1654529;86;21005;-47
2022/05/29 12:20:49;;;;;;;4.87;3.23;;;;;;;13.61;74.31;94277.17;1654801;86;21107;-46
2022/05/29 12:23:30;;;;;;;11.22;3.33;;;;;;;13.61;74.48;94275.16;1654630;86;21319;-46
2022/05/29 12:26:09;;;;;;;3.92;3.10;;;;;;;13.55;74.70;94269.39;1681128;85;21067;-47
2022/05/29 12:28:50;;;;;;;4.62;3.90;;;;;;;13.55;75.17;94266.02;1681052;85;21011;-47
2022/05/29 12:31:36;;;;;;;7.42;3.75;;;;;;;13.52;75.33;94264.83;1652682;86;21044;-47
2022/05/29 12:34:04;;;;;;;6.12;4.25;;;;;;;13.41;75.96;94258.49;1654850;86;21488;-47
2022/05/29 12:36:58;;;;;;;7.95;6.45;;;;;;;13.33;76.33;94257.97;1635414;86;21024;-46
2022/05/29 12:39:56;;;;;;;9.95;6.40;;;;;;;13.23;76.78;94259.31;1654438;86;21173;-47
2022/05/29 12:42:50;;;;;;;8.78;4.40;;;;;;;13.17;77.08;94266.11;1654193;86;21154;-46
2022/05/29 12:45:23;;;;;;;;;;;;;;;13.19;77.54;94254.57;1657055;86;21111;-49
2022/05/29 12:48:04;;;;;;;5.00;3.85;;;;;;;13.31;77.62;94253.54;1654737;86;20179;-46